Time;durP1;ratioP1;P1;durP2;ratioP2;P2;SDS_P1;SDS_P2;PMS_P1;PMS_P2;Temp;Humidity;BMP_temperature;BMP_pressure;BME280_temperature;BME280_humidity;BME280_pressure;Samples;Min_cycle;Max_cycle;Signal;HPM_P1;HPM_P2
2022/10/16 00:02:28;;;;;;;72.63;21.08;;;10.60;99.90;;;;;;5223963;28;20028;-75
2022/10/16 00:05:05;;;;;;;67.90;23.88;;;10.50;99.90;;;;;;5228958;28;20568;-75
2022/10/16 00:07:37;;;;;;;64.80;22.88;;;10.60;99.90;;;;;;5208616;28;20029;-75
2022/10/16 00:10:10;;;;;;;43.40;22.13;;;10.60;99.90;;;;;;5221220;28;20029;-74
2022/10/16 00:12:44;;;;;;;57.07;21.43;;;10.70;99.90;;;;;;5221203;28;20035;-75
2022/10/16 00:15:16;;;;;;;76.15;25.50;;;10.70;99.90;;;;;;5220512;28;20024;-75
2022/10/16 00:17:47;;;;;;;55.33;23.40;;;10.70;99.90;;;;;;5219234;28;20455;-73
2022/10/16 00:20:20;;;;;;;38.45;21.45;;;10.80;99.90;;;;;;5191843;28;20033;-73
2022/10/16 00:22:53;;;;;;;52.50;22.42;;;10.80;99.90;;;;;;5186068;28;20030;-75
2022/10/16 00:25:24;;;;;;;41.45;20.33;;;10.90;99.90;;;;;;5205962;28;20029;-75
2022/10/16 00:27:55;;;;;;;52.10;20.17;;;10.90;99.90;;;;;;5203700;28;20035;-75
2022/10/16 00:30:29;;;;;;;55.25;20.65;;;11.00;99.90;;;;;;5219589;28;20047;-75
2022/10/16 00:33:01;;;;;;;45.35;19.55;;;11.00;99.90;;;;;;5205616;28;20028;-73
2022/10/16 00:35:34;;;;;;;80.45;21.90;;;11.00;99.90;;;;;;5204145;28;20037;-75
2022/10/16 00:38:08;;;;;;;71.38;21.73;;;11.10;99.90;;;;;;5218179;28;20063;-74
2022/10/16 00:40:42;;;;;;;108.20;22.67;;;11.10;99.90;;;;;;5219780;28;20033;-75
2022/10/16 00:43:34;;;;;;;107.93;22.80;;;11.10;99.90;;;;;;5231254;28;20036;-75
2022/10/16 00:46:14;;;;;;;78.93;22.58;;;11.20;99.90;;;;;;5228518;28;20024;-75
2022/10/16 00:49:06;;;;;;;94.00;22.85;;;11.20;99.90;;;;;;5218275;28;20028;-75
2022/10/16 00:51:44;;;;;;;118.05;22.60;;;11.20;99.90;;;;;;5216138;28;20044;-74
2022/10/16 00:54:30;;;;;;;67.43;21.70;;;11.20;99.90;;;;;;5198862;28;20025;-74
2022/10/16 00:57:06;;;;;;;44.17;21.08;;;11.20;99.90;;;;;;5199002;28;20042;-74
2022/10/16 00:59:43;;;;;;;108.72;22.73;;;11.20;99.90;;;;;;5199243;28;20043;-74
2022/10/16 01:02:18;;;;;;;54.08;22.65;;;11.30;99.90;;;;;;5237972;28;20348;-73
2022/10/16 01:04:54;;;;;;;89.95;21.92;;;11.30;99.90;;;;;;5216688;28;20044;-74
2022/10/16 01:07:53;;;;;;;106.07;21.88;;;11.40;99.90;;;;;;5228869;28;20206;-73
2022/10/16 01:10:38;;;;;;;103.90;20.92;;;11.30;99.90;;;;;;5227322;28;20035;-74
2022/10/16 01:13:23;;;;;;;142.68;23.13;;;11.30;99.90;;;;;;5207045;28;20021;-73
2022/10/16 01:16:02;;;;;;;150.23;23.73;;;11.30;99.90;;;;;;5230191;28;20027;-75
2022/10/16 01:18:46;;;;;;;59.72;19.38;;;11.30;99.90;;;;;;5227028;28;20025;-74
2022/10/16 01:21:36;;;;;;;97.18;22.15;;;11.30;99.90;;;;;;5210567;28;20032;-73
2022/10/16 01:24:32;;;;;;;122.25;23.35;;;11.30;99.90;;;;;;5218391;28;20379;-75
2022/10/16 01:27:24;;;;;;;53.95;22.10;;;11.30;99.90;;;;;;5203228;28;20031;-75
2022/10/16 01:30:15;;;;;;;67.72;21.55;;;11.30;99.90;;;;;;5214103;28;20029;-74
2022/10/16 01:33:28;;;;;;;75.22;22.92;;;11.40;99.90;;;;;;5179685;28;20322;-75
2022/10/16 01:36:07;;;;;;;47.28;24.88;;;11.40;99.90;;;;;;5112423;28;20034;-75
2022/10/16 01:38:40;;;;;;;106.13;25.05;;;11.40;99.90;;;;;;5160892;28;20038;-74
2022/10/16 01:41:47;;;;;;;99.35;22.10;;;11.50;99.90;;;;;;5149331;28;20347;-75
2022/10/16 01:44:33;;;;;;;74.95;23.27;;;11.50;99.90;;;;;;5060686;29;20036;-75
2022/10/16 01:47:08;;;;;;;106.40;24.48;;;11.50;99.90;;;;;;5080864;29;20082;-75
2022/10/16 01:49:44;;;;;;;103.10;25.23;;;11.60;99.90;;;;;;5063175;29;20044;-74
2022/10/16 01:52:21;;;;;;;181.88;26.23;;;11.60;99.90;;;;;;5050887;29;20040;-75
2022/10/16 01:54:56;;;;;;;51.97;22.55;;;11.60;99.90;;;;;;5096571;29;20054;-75
2022/10/16 01:57:29;;;;;;;125.10;27.05;;;11.60;99.90;;;;;;5080875;29;20036;-75
2022/10/16 02:00:13;;;;;;;99.30;23.60;;;11.70;99.90;;;;;;5080563;29;20046;-73
2022/10/16 02:02:48;;;;;;;65.47;24.53;;;11.70;99.90;;;;;;5079253;29;20031;-75
2022/10/16 02:05:22;;;;;;;60.55;23.77;;;11.60;99.90;;;;;;5081439;28;20380;-74
2022/10/16 02:07:54;;;;;;;85.30;24.25;;;11.60;99.90;;;;;;5106380;29;20054;-75
2022/10/16 02:10:30;;;;;;;133.45;26.40;;;11.60;99.90;;;;;;5100591;29;20043;-75
2022/10/16 02:13:09;;;;;;;84.38;24.23;;;11.50;99.90;;;;;;5099108;29;20046;-74
2022/10/16 02:15:41;;;;;;;82.63;22.77;;;11.50;99.90;;;;;;5092515;29;20027;-75
2022/10/16 02:18:13;;;;;;;104.30;23.60;;;11.50;99.90;;;;;;5099391;29;20143;-75
2022/10/16 02:20:54;;;;;;;78.70;25.00;;;11.60;99.90;;;;;;5188251;28;20483;-75
2022/10/16 02:24:13;;;;;;;104.15;24.85;;;11.60;99.90;;;;;;5214874;28;20060;-73
2022/10/16 02:26:55;;;;;;;95.32;24.63;;;11.60;99.90;;;;;;5160468;28;20030;-75
2022/10/16 02:29:27;;;;;;;72.32;22.58;;;11.60;99.90;;;;;;5159094;28;20076;-75
2022/10/16 02:32:04;;;;;;;108.47;26.70;;;11.60;99.90;;;;;;5160189;28;20034;-74
2022/10/16 02:34:37;;;;;;;88.10;23.70;;;11.60;99.90;;;;;;5151649;28;20037;-75
2022/10/16 02:37:11;;;;;;;58.45;22.42;;;11.60;99.90;;;;;;5164045;28;20034;-75
2022/10/16 02:39:45;;;;;;;66.72;23.98;;;11.60;99.90;;;;;;5178755;28;20042;-75
2022/10/16 02:42:17;;;;;;;54.93;22.27;;;11.70;99.90;;;;;;5174500;28;20056;-74
2022/10/16 02:44:49;;;;;;;41.08;20.98;;;11.70;99.90;;;;;;5179905;28;20076;-75
2022/10/16 02:47:20;;;;;;;52.20;20.98;;;11.70;99.90;;;;;;5163536;28;20034;-75
2022/10/16 02:49:52;;;;;;;65.97;23.13;;;11.70;99.90;;;;;;5180742;28;20026;-75
2022/10/16 02:52:23;;;;;;;45.75;21.55;;;11.60;99.90;;;;;;5183064;28;20068;-75
2022/10/16 02:54:55;;;;;;;42.38;22.08;;;11.50;99.90;;;;;;5197672;28;20048;-73
2022/10/16 02:57:26;;;;;;;61.10;24.13;;;11.50;99.90;;;;;;5194799;28;20025;-74
2022/10/16 02:59:57;;;;;;;64.63;23.65;;;11.50;99.90;;;;;;5190666;28;20383;-74
2022/10/16 03:02:34;;;;;;;87.10;25.67;;;11.50;99.90;;;;;;5209296;28;20041;-74
2022/10/16 03:05:06;;;;;;;48.13;23.17;;;11.50;99.90;;;;;;5219478;28;20055;-74
2022/10/16 03:07:37;;;;;;;68.18;24.27;;;11.40;99.90;;;;;;5221598;28;20020;-73
2022/10/16 03:10:12;;;;;;;37.80;21.45;;;11.40;99.90;;;;;;5211172;28;20024;-73
2022/10/16 03:12:43;;;;;;;59.72;24.90;;;11.40;99.90;;;;;;5215385;28;20036;-73
2022/10/16 03:15:16;;;;;;;85.35;23.42;;;11.40;99.90;;;;;;5204458;28;20043;-73
2022/10/16 03:17:48;;;;;;;118.20;25.38;;;11.30;99.90;;;;;;5205519;28;20032;-75
2022/10/16 03:20:21;;;;;;;75.50;22.35;;;11.30;99.90;;;;;;5204584;28;20033;-75
2022/10/16 03:22:52;;;;;;;111.35;23.02;;;11.20;99.90;;;;;;5204122;28;20842;-75
2022/10/16 03:25:23;;;;;;;167.45;24.48;;;11.20;99.90;;;;;;5220328;28;20025;-75
2022/10/16 03:27:55;;;;;;;126.30;24.27;;;11.20;99.90;;;;;;5207804;28;20026;-73
2022/10/16 03:30:26;;;;;;;78.25;22.23;;;11.10;99.90;;;;;;5213416;28;20392;-74
2022/10/16 03:32:57;;;;;;;139.00;24.33;;;11.10;99.90;;;;;;5211770;28;20063;-74
2022/10/16 03:35:31;;;;;;;97.15;23.08;;;11.10;99.90;;;;;;5238199;28;20024;-74
2022/10/16 03:38:02;;;;;;;218.13;26.50;;;11.10;99.90;;;;;;5218062;28;20230;-73
2022/10/16 03:40:33;;;;;;;281.50;27.13;;;11.00;99.90;;;;;;5190747;28;20045;-73
2022/10/16 03:43:04;;;;;;;51.95;18.83;;;11.00;99.90;;;;;;5199208;28;20500;-74
2022/10/16 03:45:36;;;;;;;126.75;23.05;;;11.00;99.90;;;;;;5203869;28;20410;-75
2022/10/16 03:48:07;;;;;;;57.10;20.52;;;11.10;99.90;;;;;;5221797;28;20017;-75
2022/10/16 03:50:38;;;;;;;228.50;25.20;;;11.10;99.90;;;;;;5204550;28;20027;-75
2022/10/16 03:53:09;;;;;;;87.78;21.17;;;11.00;99.90;;;;;;5221498;28;20021;-74
2022/10/16 03:55:46;;;;;;;129.32;22.85;;;11.00;99.90;;;;;;5223154;28;20039;-75
2022/10/16 03:58:17;;;;;;;68.65;21.90;;;11.00;99.90;;;;;;5232664;28;20032;-74
2022/10/16 04:00:51;;;;;;;137.80;20.38;;;11.00;99.90;;;;;;5219337;28;20242;-75
2022/10/16 04:03:22;;;;;;;172.63;22.33;;;11.10;99.90;;;;;;5217350;28;20402;-74
2022/10/16 04:05:54;;;;;;;70.78;20.52;;;11.00;99.90;;;;;;5197002;28;20041;-74
2022/10/16 04:08:27;;;;;;;77.50;21.55;;;11.00;99.90;;;;;;5204010;28;20025;-75
2022/10/16 04:10:59;;;;;;;104.90;22.02;;;11.10;99.90;;;;;;5220669;28;20041;-74
2022/10/16 04:13:41;;;;;;;67.10;21.30;;;11.00;99.90;;;;;;5221131;28;20029;-75
2022/10/16 04:16:15;;;;;;;121.78;23.23;;;11.00;99.90;;;;;;5221799;28;20035;-74
2022/10/16 04:18:49;;;;;;;84.50;21.05;;;10.90;99.90;;;;;;5204494;28;20029;-74
2022/10/16 04:21:22;;;;;;;119.88;21.95;;;10.90;99.90;;;;;;5221361;28;20043;-74
2022/10/16 04:23:53;;;;;;;105.38;23.00;;;10.90;99.90;;;;;;5203555;28;20656;-74
2022/10/16 04:26:24;;;;;;;82.55;21.70;;;10.90;99.90;;;;;;5221398;28;20347;-75
2022/10/16 04:28:56;;;;;;;83.50;20.73;;;10.90;99.90;;;;;;5210964;28;20313;-73
2022/10/16 04:31:29;;;;;;;135.07;23.60;;;10.90;99.90;;;;;;5187045;28;20041;-73
2022/10/16 04:34:06;;;;;;;54.55;21.70;;;10.90;99.90;;;;;;5224172;28;20381;-74
2022/10/16 04:36:43;;;;;;;49.00;18.67;;;10.90;99.90;;;;;;5214492;28;20029;-74
2022/10/16 04:39:17;;;;;;;52.05;19.23;;;10.90;99.90;;;;;;5219122;28;20017;-74
2022/10/16 04:41:50;;;;;;;37.25;21.00;;;10.80;99.90;;;;;;5220244;28;20037;-74
2022/10/16 04:44:27;;;;;;;29.95;17.02;;;10.80;99.90;;;;;;5199792;28;20556;-75
2022/10/16 04:47:01;;;;;;;46.30;19.42;;;10.80;99.90;;;;;;5220665;28;20023;-72
2022/10/16 04:49:35;;;;;;;24.77;16.50;;;10.70;99.90;;;;;;5220706;28;20349;-75
2022/10/16 04:52:08;;;;;;;66.85;20.33;;;10.70;99.90;;;;;;5220325;28;20036;-74
2022/10/16 04:54:40;;;;;;;32.53;17.42;;;10.70;99.90;;;;;;5221269;28;20412;-75
2022/10/16 04:57:11;;;;;;;34.22;20.08;;;10.70;99.90;;;;;;5219768;28;20027;-74
2022/10/16 04:59:42;;;;;;;88.68;20.75;;;10.60;99.90;;;;;;5219280;28;20567;-74
2022/10/16 05:02:14;;;;;;;51.72;20.27;;;10.60;99.90;;;;;;5220340;28;20041;-74
2022/10/16 05:04:45;;;;;;;81.93;21.95;;;10.60;99.90;;;;;;5171931;28;20045;-74
2022/10/16 05:07:16;;;;;;;59.55;19.88;;;10.50;99.90;;;;;;5221099;28;20029;-74
2022/10/16 05:09:47;;;;;;;53.38;21.10;;;10.50;99.90;;;;;;5194990;28;20055;-74
2022/10/16 05:12:18;;;;;;;74.05;20.73;;;10.50;99.90;;;;;;5203242;28;20637;-74
2022/10/16 05:14:52;;;;;;;86.03;19.90;;;10.50;99.90;;;;;;5205844;28;20033;-74
2022/10/16 05:17:29;;;;;;;97.65;22.33;;;10.50;99.90;;;;;;5195700;28;20032;-72
2022/10/16 05:20:00;;;;;;;35.40;19.00;;;10.50;99.90;;;;;;5213972;28;20029;-74
2022/10/16 05:22:31;;;;;;;38.15;22.60;;;10.50;99.90;;;;;;5194905;28;20037;-75
2022/10/16 05:25:06;;;;;;;55.22;22.13;;;10.60;99.90;;;;;;5193139;28;20025;-74
2022/10/16 05:27:39;;;;;;;54.40;21.70;;;10.70;99.90;;;;;;5193011;28;20020;-74
2022/10/16 05:30:17;;;;;;;36.97;22.77;;;10.70;99.90;;;;;;5189745;28;20032;-74
2022/10/16 05:32:50;;;;;;;52.85;21.80;;;10.70;99.90;;;;;;5197241;28;20028;-73
2022/10/16 05:35:24;;;;;;;41.92;22.48;;;10.80;99.90;;;;;;5203982;28;20040;-73
2022/10/16 05:37:55;;;;;;;49.33;22.10;;;10.70;99.90;;;;;;5196182;28;20111;-72
2022/10/16 05:40:29;;;;;;;46.67;20.38;;;10.80;99.90;;;;;;5214875;28;20032;-74
2022/10/16 05:43:01;;;;;;;69.30;21.15;;;10.90;99.90;;;;;;5214027;28;20433;-73
2022/10/16 05:45:32;;;;;;;41.58;19.80;;;10.90;99.90;;;;;;5196367;28;20044;-73
2022/10/16 05:48:06;;;;;;;63.38;21.10;;;10.90;99.90;;;;;;5210645;28;20029;-75
2022/10/16 05:50:37;;;;;;;59.75;20.52;;;10.90;99.90;;;;;;5215215;28;20052;-74
2022/10/16 05:53:08;;;;;;;97.30;21.10;;;10.90;99.90;;;;;;5217581;28;20301;-74
2022/10/16 05:55:42;;;;;;;92.10;20.95;;;11.00;99.90;;;;;;5209018;28;20511;-74
2022/10/16 05:58:13;;;;;;;123.97;20.52;;;11.10;99.90;;;;;;5200265;28;20025;-73
2022/10/16 06:00:46;;;;;;;174.70;22.95;;;11.20;99.90;;;;;;5212166;28;20021;-75
2022/10/16 06:03:20;;;;;;;92.57;20.63;;;11.20;99.90;;;;;;5224967;28;20039;-74
2022/10/16 06:05:51;;;;;;;101.55;19.55;;;11.20;99.90;;;;;;5189230;28;20053;-74
2022/10/16 06:08:31;;;;;;;120.15;20.30;;;11.30;99.90;;;;;;5198442;28;20020;-75
2022/10/16 06:11:10;;;;;;;126.15;21.65;;;11.40;99.90;;;;;;5207457;28;20362;-74
2022/10/16 06:13:47;;;;;;;60.58;18.55;;;11.30;99.90;;;;;;5237647;28;20013;-74
2022/10/16 06:16:19;;;;;;;135.25;21.10;;;11.30;99.90;;;;;;5216935;28;20362;-74
2022/10/16 06:18:55;;;;;;;72.22;17.88;;;11.30;99.90;;;;;;5215643;28;20029;-75
2022/10/16 06:21:29;;;;;;;131.75;19.42;;;11.30;99.90;;;;;;5215891;28;20610;-75
2022/10/16 06:24:01;;;;;;;60.00;17.50;;;11.40;99.90;;;;;;5228319;28;20044;-75
2022/10/16 06:26:32;;;;;;;88.32;17.73;;;11.40;99.90;;;;;;5234210;28;20031;-75
2022/10/16 06:29:05;;;;;;;34.60;15.90;;;11.40;99.90;;;;;;5244175;28;20036;-74
2022/10/16 06:31:39;;;;;;;70.28;18.25;;;11.50;99.90;;;;;;5221798;28;20056;-75
2022/10/16 06:34:13;;;;;;;35.55;17.67;;;11.60;99.90;;;;;;5198871;28;20033;-73
2022/10/16 06:36:46;;;;;;;53.53;17.42;;;11.40;99.90;;;;;;5218410;28;20029;-76
2022/10/16 06:39:17;;;;;;;77.07;16.88;;;11.40;99.90;;;;;;5208284;28;20336;-75
2022/10/16 06:41:48;;;;;;;68.22;17.45;;;11.50;99.90;;;;;;5238114;28;20044;-75
2022/10/16 06:44:19;;;;;;;29.67;16.92;;;11.50;99.90;;;;;;5203281;28;20033;-74
2022/10/16 06:46:51;;;;;;;44.58;17.10;;;11.50;99.90;;;;;;5221674;28;20025;-73
2022/10/16 06:49:22;;;;;;;33.67;15.57;;;11.50;99.90;;;;;;5212255;28;20029;-74
2022/10/16 06:51:54;;;;;;;52.42;15.48;;;11.40;99.90;;;;;;5197894;28;20020;-74
2022/10/16 06:54:25;;;;;;;28.20;17.52;;;11.50;99.90;;;;;;5227978;28;20023;-73
2022/10/16 06:57:00;;;;;;;71.00;18.63;;;11.50;99.90;;;;;;5235227;28;20249;-74
2022/10/16 06:59:35;;;;;;;23.00;15.75;;;11.40;99.90;;;;;;5222869;28;20040;-74
2022/10/16 07:02:07;;;;;;;35.35;16.42;;;11.50;99.90;;;;;;5196522;28;20045;-73
2022/10/16 07:04:40;;;;;;;30.52;17.83;;;11.60;99.90;;;;;;5174080;28;20040;-73
2022/10/16 07:07:13;;;;;;;56.63;19.87;;;11.80;99.90;;;;;;5229145;28;20056;-73
2022/10/16 07:09:45;;;;;;;24.88;17.73;;;12.00;99.90;;;;;;5231638;28;20032;-74
2022/10/16 07:12:19;;;;;;;29.42;16.00;;;12.10;99.90;;;;;;5217955;28;20046;-74
2022/10/16 07:14:52;;;;;;;23.23;16.00;;;12.20;99.90;;;;;;5229688;28;20058;-74
2022/10/16 07:17:25;;;;;;;22.48;16.25;;;12.40;99.90;;;;;;5243682;28;20025;-74
2022/10/16 07:19:59;;;;;;;27.27;16.98;;;12.50;99.90;;;;;;5239946;28;20034;-74
2022/10/16 07:22:30;;;;;;;27.87;16.40;;;12.40;99.90;;;;;;5218904;28;20025;-74
2022/10/16 07:25:01;;;;;;;47.85;16.92;;;12.40;99.90;;;;;;5206574;28;20278;-74
2022/10/16 07:27:32;;;;;;;31.27;17.08;;;12.50;99.90;;;;;;5224885;28;20033;-73
2022/10/16 07:30:05;;;;;;;38.00;17.33;;;12.60;99.90;;;;;;5200233;28;20021;-72
2022/10/16 07:32:39;;;;;;;29.33;16.35;;;12.80;99.90;;;;;;5200824;28;20068;-74
2022/10/16 07:35:10;;;;;;;31.10;17.03;;;12.90;99.90;;;;;;5210473;28;20025;-74
2022/10/16 07:37:47;;;;;;;30.10;16.77;;;12.80;99.90;;;;;;5190294;28;20250;-75
2022/10/16 07:40:21;;;;;;;29.17;16.70;;;12.80;99.90;;;;;;5215600;28;20039;-74
2022/10/16 07:42:54;;;;;;;27.23;17.42;;;12.80;99.90;;;;;;5199881;28;20028;-75
2022/10/16 07:45:26;;;;;;;28.48;17.08;;;13.00;99.90;;;;;;5223428;28;20164;-74
2022/10/16 07:47:57;;;;;;;31.25;16.55;;;13.20;99.90;;;;;;5223204;28;20375;-74
2022/10/16 07:50:31;;;;;;;33.78;17.08;;;13.30;99.90;;;;;;5189043;28;20406;-74
2022/10/16 07:53:05;;;;;;;27.25;16.90;;;13.40;99.90;;;;;;5223395;28;20406;-74
2022/10/16 07:55:37;;;;;;;30.42;17.77;;;13.30;99.90;;;;;;5209133;28;20035;-76
2022/10/16 07:58:09;;;;;;;33.85;16.77;;;13.30;99.90;;;;;;5226218;28;20033;-75
2022/10/16 08:00:42;;;;;;;35.00;19.05;;;13.30;99.90;;;;;;5215240;28;20026;-74
2022/10/16 08:03:13;;;;;;;42.58;20.58;;;13.40;99.90;;;;;;5179238;28;20230;-76
2022/10/16 08:05:50;;;;;;;37.90;19.83;;;13.60;99.90;;;;;;5183957;28;20036;-74
2022/10/16 08:08:21;;;;;;;42.72;20.15;;;13.40;99.90;;;;;;5239316;28;20040;-73
2022/10/16 08:10:55;;;;;;;28.17;17.65;;;13.50;99.90;;;;;;5225077;28;20048;-73
2022/10/16 08:13:26;;;;;;;30.58;17.83;;;13.50;99.90;;;;;;5201329;28;20037;-75
2022/10/16 08:15:57;;;;;;;36.58;19.27;;;13.30;99.90;;;;;;5202175;28;20047;-75
2022/10/16 08:18:31;;;;;;;49.33;19.52;;;13.50;99.90;;;;;;5184447;28;20634;-75
2022/10/16 08:21:04;;;;;;;38.40;19.60;;;13.70;99.90;;;;;;5227369;28;20025;-74
2022/10/16 08:23:35;;;;;;;35.70;18.35;;;13.90;99.90;;;;;;5229868;28;20017;-74
2022/10/16 08:26:13;;;;;;;27.67;17.95;;;13.80;99.90;;;;;;5200460;28;20067;-74
2022/10/16 08:28:50;;;;;;;33.28;17.95;;;14.00;99.90;;;;;;5177748;28;20037;-75
2022/10/16 08:31:24;;;;;;;37.88;17.67;;;14.00;99.90;;;;;;5199103;28;20036;-74
2022/10/16 08:33:55;;;;;;;30.67;16.58;;;13.90;99.90;;;;;;5214237;28;20397;-74
2022/10/16 08:36:31;;;;;;;26.95;15.27;;;13.90;99.90;;;;;;5212696;28;20031;-75
2022/10/16 08:39:05;;;;;;;31.13;16.08;;;13.90;99.90;;;;;;5230924;28;20013;-75
2022/10/16 08:41:48;;;;;;;25.00;16.20;;;13.80;99.90;;;;;;5222117;28;20469;-74
2022/10/16 08:44:41;;;;;;;24.52;17.05;;;14.00;99.90;;;;;;5192702;28;20097;-75
2022/10/16 08:47:15;;;;;;;24.55;16.40;;;14.00;99.90;;;;;;5181981;28;20025;-75
2022/10/16 08:49:56;;;;;;;38.25;16.50;;;14.20;99.90;;;;;;5185791;28;20017;-74
2022/10/16 08:52:35;;;;;;;32.03;17.65;;;14.20;99.90;;;;;;5182559;28;20041;-74
2022/10/16 08:55:16;;;;;;;24.65;15.00;;;14.20;99.90;;;;;;5212086;28;20024;-74
2022/10/16 08:57:47;;;;;;;38.72;17.10;;;14.30;99.90;;;;;;5229478;28;20016;-74
2022/10/16 09:00:19;;;;;;;26.95;16.35;;;14.60;99.90;;;;;;5230615;28;20039;-74
2022/10/16 09:02:56;;;;;;;32.25;16.58;;;14.40;99.90;;;;;;5233778;28;20043;-75
2022/10/16 09:06:11;;;;;;;28.95;16.55;;;14.40;99.90;;;;;;5212627;28;20053;-74
2022/10/16 09:09:19;;;;;;;22.48;16.63;;;14.70;99.90;;;;;;5213895;28;20035;-74
2022/10/16 09:12:18;;;;;;;22.65;15.02;;;14.70;99.90;;;;;;5201376;28;20036;-74
2022/10/16 09:15:07;;;;;;;26.38;16.50;;;14.90;99.90;;;;;;5227020;28;20041;-73
2022/10/16 09:18:06;;;;;;;27.65;16.33;;;14.80;99.90;;;;;;5210532;28;20546;-74
2022/10/16 09:21:15;;;;;;;26.13;16.48;;;14.70;99.90;;;;;;5226478;28;20566;-73
2022/10/16 09:23:47;;;;;;;28.80;16.65;;;14.60;99.90;;;;;;5201218;28;20044;-74
2022/10/16 09:26:21;;;;;;;26.65;16.83;;;14.40;99.90;;;;;;5228393;28;20029;-74
2022/10/16 09:28:53;;;;;;;27.38;17.73;;;14.60;99.90;;;;;;5207037;28;20028;-73
2022/10/16 09:31:27;;;;;;;21.77;15.07;;;14.90;99.90;;;;;;5209472;28;21171;-74
2022/10/16 09:34:05;;;;;;;28.33;16.77;;;15.10;99.90;;;;;;5231722;28;20021;-73
2022/10/16 09:36:44;;;;;;;22.65;15.90;;;15.10;99.90;;;;;;5237591;28;20020;-74
2022/10/16 09:39:15;;;;;;;24.60;16.58;;;15.10;99.90;;;;;;5213804;28;20055;-75
2022/10/16 09:41:49;;;;;;;25.70;16.38;;;15.10;99.90;;;;;;5230386;28;20039;-75
2022/10/16 09:44:29;;;;;;;26.50;17.55;;;15.20;99.90;;;;;;5236366;28;20026;-75
2022/10/16 09:47:20;;;;;;;23.30;16.52;;;15.40;99.90;;;;;;5229178;28;20017;-77
2022/10/16 09:50:01;;;;;;;24.35;16.50;;;15.30;99.90;;;;;;5209389;28;20033;-75
2022/10/16 09:52:35;;;;;;;26.63;16.27;;;15.50;99.90;;;;;;5229638;28;20104;-75
2022/10/16 09:55:15;;;;;;;25.70;17.20;;;15.70;99.90;;;;;;5210258;28;20033;-74
2022/10/16 09:57:53;;;;;;;24.60;17.10;;;15.90;99.90;;;;;;5231928;28;20028;-75
2022/10/16 10:00:29;;;;;;;29.77;18.42;;;15.90;99.90;;;;;;5220674;28;20026;-74
2022/10/16 10:03:01;;;;;;;27.10;17.55;;;15.50;99.90;;;;;;5236375;28;20241;-74
2022/10/16 10:05:32;;;;;;;27.45;18.13;;;15.50;99.90;;;;;;5197232;28;20052;-74
2022/10/16 10:08:08;;;;;;;30.33;20.23;;;15.70;99.90;;;;;;5225240;28;20039;-75
2022/10/16 10:10:42;;;;;;;30.88;20.23;;;15.70;99.90;;;;;;5208551;28;20360;-74
2022/10/16 10:13:22;;;;;;;30.00;19.52;;;15.40;99.90;;;;;;5232116;28;20039;-74
2022/10/16 10:15:54;;;;;;;28.55;18.88;;;15.20;99.90;;;;;;5221689;28;20045;-75
2022/10/16 10:18:26;;;;;;;29.42;19.15;;;15.40;99.90;;;;;;5229072;28;20029;-74
2022/10/16 10:20:59;;;;;;;29.25;19.08;;;15.40;99.90;;;;;;5233453;28;20434;-74
2022/10/16 10:23:31;;;;;;;31.08;18.83;;;15.30;99.90;;;;;;5231326;28;20033;-75
2022/10/16 10:26:08;;;;;;;26.48;18.42;;;15.30;99.90;;;;;;5241947;28;20032;-75
2022/10/16 10:28:51;;;;;;;32.80;20.40;;;15.20;99.90;;;;;;5219723;28;20329;-75
2022/10/16 10:31:52;;;;;;;25.25;16.90;;;15.40;99.90;;;;;;5237533;28;20031;-75
2022/10/16 10:34:37;;;;;;;27.63;18.50;;;15.40;99.90;;;;;;5225294;28;20529;-74
2022/10/16 10:37:46;;;;;;;27.70;18.85;;;15.70;99.90;;;;;;5239460;28;20225;-74
2022/10/16 10:40:38;;;;;;;31.48;20.50;;;15.80;99.90;;;;;;5160488;28;20026;-75
2022/10/16 10:43:38;;;;;;;31.80;20.98;;;15.70;99.90;;;;;;5160065;28;20255;-74
2022/10/16 10:46:38;;;;;;;27.88;19.33;;;15.70;99.90;;;;;;5177163;28;20029;-75
2022/10/16 10:49:56;;;;;;;32.72;20.75;;;15.70;99.90;;;;;;5148171;28;20034;-75
2022/10/16 10:52:36;;;;;;;32.72;20.80;;;15.80;99.90;;;;;;5116095;28;20042;-74
2022/10/16 10:55:25;;;;;;;30.27;19.98;;;16.00;99.90;;;;;;5180104;28;20543;-75
2022/10/16 10:58:44;;;;;;;33.17;21.75;;;16.10;99.90;;;;;;5180125;28;20912;-75
2022/10/16 11:01:33;;;;;;;33.97;21.65;;;16.20;99.90;;;;;;5128164;28;20349;-75
2022/10/16 11:04:28;;;;;;;32.35;19.42;;;16.20;99.90;;;;;;5176960;28;20077;-74
2022/10/16 11:07:03;;;;;;;32.38;21.27;;;16.30;99.90;;;;;;5150555;28;20048;-73
2022/10/16 11:09:43;;;;;;;32.13;20.70;;;16.30;99.90;;;;;;5184384;28;20339;-73
2022/10/16 11:12:27;;;;;;;32.28;20.95;;;16.20;99.90;;;;;;5177492;28;20041;-74
2022/10/16 11:15:12;;;;;;;32.88;21.35;;;16.00;99.90;;;;;;5176835;28;20064;-74
2022/10/16 11:17:56;;;;;;;32.65;20.70;;;16.10;99.90;;;;;;5195883;28;20029;-74
2022/10/16 11:20:54;;;;;;;33.95;21.80;;;15.90;99.90;;;;;;5223154;28;20076;-74
2022/10/16 11:23:43;;;;;;;35.22;22.17;;;15.80;99.90;;;;;;5223624;28;20486;-74
2022/10/16 11:26:23;;;;;;;33.63;20.98;;;16.00;99.90;;;;;;5213090;28;20016;-73
2022/10/16 11:28:56;;;;;;;33.05;22.25;;;16.60;99.90;;;;;;5210989;28;20483;-74
2022/10/16 11:31:42;;;;;;;34.28;20.80;;;16.50;99.90;;;;;;5227296;28;20032;-74
2022/10/16 11:34:39;;;;;;;31.60;21.65;;;17.00;99.90;;;;;;5218101;28;20220;-74
2022/10/16 11:37:19;;;;;;;30.48;20.88;;;17.40;99.90;;;;;;5215087;28;20012;-77
2022/10/16 11:39:57;;;;;;;29.80;19.50;;;17.50;99.90;;;;;;5224911;28;20043;-75
2022/10/16 11:42:41;;;;;;;30.65;19.50;;;18.30;99.90;;;;;;5223207;28;20029;-73
2022/10/16 11:45:29;;;;;;;32.60;20.55;;;18.60;99.90;;;;;;5217016;28;20012;-73
2022/10/16 11:48:19;;;;;;;27.35;18.45;;;18.70;99.90;;;;;;5228036;28;20403;-74
2022/10/16 11:50:53;;;;;;;27.73;19.30;;;19.60;99.90;;;;;;5210072;28;20050;-74
2022/10/16 11:53:40;;;;;;;26.40;18.58;;;20.50;99.90;;;;;;5230616;28;20490;-75
2022/10/16 11:56:15;;;;;;;28.08;18.83;;;21.50;99.90;;;;;;5198288;28;20023;-74
2022/10/16 11:59:07;;;;;;;25.98;17.38;;;22.60;99.90;;;;;;5221343;28;20021;-73
2022/10/16 12:02:09;;;;;;;23.88;17.52;;;23.50;99.90;;;;;;5212306;28;20041;-73
2022/10/16 12:04:47;;;;;;;24.35;17.17;;;24.90;99.90;;;;;;5187716;28;20041;-75
2022/10/16 12:07:27;;;;;;;25.02;17.13;;;26.30;99.90;;;;;;5234410;28;20371;-75
2022/10/16 12:10:20;;;;;;;20.02;16.10;;;27.20;99.90;;;;;;5229088;28;20020;-75
2022/10/16 12:12:51;;;;;;;22.25;16.90;;;28.40;99.90;;;;;;5213067;28;20044;-76
2022/10/16 12:15:28;;;;;;;21.02;16.15;;;28.90;99.90;;;;;;5230895;28;20013;-74
2022/10/16 12:18:02;;;;;;;25.50;17.70;;;29.60;99.90;;;;;;5203264;28;20351;-75
2022/10/16 12:20:36;;;;;;;24.52;17.42;;;29.80;99.90;;;;;;5205736;28;20429;-74
2022/10/16 12:23:19;;;;;;;26.30;17.70;;;30.00;99.90;;;;;;5224388;28;20040;-74
2022/10/16 12:25:55;;;;;;;27.10;18.98;;;30.30;99.90;;;;;;5201200;28;20027;-74
2022/10/16 12:28:36;;;;;;;22.13;17.05;;;29.10;99.90;;;;;;5213883;28;20033;-76
2022/10/16 12:31:09;;;;;;;23.40;17.70;;;28.70;99.90;;;;;;5218905;28;20024;-74
2022/10/16 12:33:51;;;;;;;25.10;18.77;;;29.10;99.90;;;;;;5206793;28;20221;-75
2022/10/16 12:36:31;;;;;;;25.30;18.85;;;29.60;99.90;;;;;;5225936;28;20024;-75
2022/10/16 12:39:03;;;;;;;24.85;18.65;;;29.20;99.90;;;;;;5218880;28;20476;-75
2022/10/16 12:41:39;;;;;;;26.25;18.42;;;29.40;99.90;;;;;;5210740;28;20029;-75
2022/10/16 12:44:39;;;;;;;26.27;18.63;;;28.20;99.90;;;;;;5222531;28;20020;-75
2022/10/16 12:47:51;;;;;;;23.80;18.85;;;28.50;99.90;;;;;;5212099;28;20028;-75
2022/10/16 12:50:42;;;;;;;24.98;17.58;;;28.60;99.90;;;;;;5170965;28;20034;-74
2022/10/16 12:53:28;;;;;;;25.92;18.67;;;29.90;99.90;;;;;;5158053;28;20435;-75
2022/10/16 12:56:19;;;;;;;22.95;17.30;;;30.40;99.90;;;;;;5173541;28;20491;-76
2022/10/16 12:59:02;;;;;;;20.52;15.90;;;30.10;99.90;;;;;;5153907;28;20467;-75
2022/10/16 13:02:05;;;;;;;26.63;18.33;;;30.50;99.90;;;;;;5157885;28;20046;-76
2022/10/16 13:05:12;;;;;;;25.48;19.02;;;31.00;99.90;;;;;;5165847;28;20050;-75
2022/10/16 13:07:43;;;;;;;27.13;19.48;;;30.70;99.90;;;;;;5175063;28;20038;-74
2022/10/16 13:10:32;;;;;;;23.40;17.92;;;30.50;99.90;;;;;;5174784;28;20030;-75
2022/10/16 13:13:32;;;;;;;25.08;19.77;;;30.50;99.90;;;;;;5172128;28;20044;-74
2022/10/16 13:16:37;;;;;;;28.23;18.35;;;30.70;99.90;;;;;;5173858;28;20037;-74
2022/10/16 13:19:22;;;;;;;24.70;18.85;;;30.60;99.90;;;;;;5174798;28;20029;-74
2022/10/16 13:22:22;;;;;;;25.30;19.80;;;30.50;99.90;;;;;;5195250;28;20033;-74